Aviation Digital Data Service (ADDS)

Output produced by METARs form (2301 UTC 23 May 2022)
found at http://www.aviationweather.gov/metar/data/
 
VTBD 232230Z 21004KT 9999 FEW020 28/23 Q1005 NOSIG
TAF VTBD 231700Z 2318/2424 21005KT 9999 FEW020
       
VTUO 232200Z 20007KT 9000 NSC 26/25 Q1006 NOSIG
TAF VTUO 231700Z 2318/2418 23006KT 9999 SCT030 
     TEMPO 2412/2415 VRB16KT 4000 TSRA FEW018CB BKN025
       
VTCC 232230Z VRB02KT 9999 FEW035 24/22 Q1005 NOSIG
TAF VTCC 231700Z 2318/2424 24005KT 9999 SCT035 
     BECMG 2320/2322 01005KT 
     BECMG 2400/2402 18005KT 
     TEMPO 2404/2412 26015G30KT 4000 TSRA FEW025CB BKN035 
     BECMG 2410/2412 25005KT 
     BECMG 2416/2418 01005KT
       
VTCT 232200Z 00000KT CAVOK 24/24 Q1005 NOSIG
TAF VTCT 231700Z 2318/2424 18005KT 9999 FEW040 
     BECMG 2320/2322 04005KT 
     BECMG 2402/2404 17005KT 
     TEMPO 2406/2413 24015G30KT 4000 TSRA FEW025CB BKN035
       
TAF VTSE 231700Z 2318/2418 25005KT 8000 FEW020 
     PROB40 
     TEMPO 2404/2410 25015G25KT 4000 TSRA FEW016CB SCT018 BKN100
       
VTSS 232230Z 00000KT 9999 FEW020 24/24 Q1008 NOSIG
TAF VTSS 231700Z 2318/2418 24003KT 9999 FEW020
       
TAF VTPH 231700Z 2318/2418 21004KT 9999 FEW020
       
VTUK 232200Z 20007KT 9000 SCT030 BKN100 26/22 Q1005 NOSIG
TAF VTUK 231700Z 2318/2418 19005KT 8000 FEW030 SCT100 
     TEMPO 2408/2414 VRB15KT 4000 TSRA FEW018CB BKN020 BKN080
       
VTSG 232200Z VRB01KT 9999 FEW020 24/24 Q1008 NOSIG
TAF VTSG 231700Z 2318/2418 00000KT 9999 FEW020 
     BECMG 2402/2404 24008KT 
     BECMG 2412/2414 00000KT
       
TAF VTCL 231700Z 2318/2418 20005KT 9999 SCT025 
     TEMPO 2403/2410 24015G30KT 4000 TSRA FEW020CB BKN025
       
TAF VTUL 231700Z 2318/2418 21005KT 9000 SCT030 
     TEMPO 2406/2412 VRB15KT 4000 TSRA FEW018CB BKN020 BKN080
       
TAF VTCH 231700Z 2318/2418 32005KT 9999 FEW025 
     TEMPO 2400/2406 28015G25KT 4000 TSRA FEW020CB BKN025 
     BECMG 2404/2406 20005KT
       
TAF VTPM 231700Z 2318/2418 28005KT 9999 SCT030 
     TEMPO 2322/2406 34015G25KT 4000 TSRA FEW020CB BKN030
       
TAF VTUW 231700Z 2318/2418 17005KT 9000 FEW030 SCT100 
     TEMPO 2318/2322 VRB15KT 4000 TSRA FEW018CB BKN020 BKN080 
     TEMPO 2407/2413 VRB15KT 4000 TSRA FEW018CB BKN020 BKN080
       
TAF VTUQ 231700Z 2318/2418 25006KT 9999 SCT030 
     TEMPO 2408/2411 VRB16KT 4000 TSRA FEW018CB BKN025
       
TAF VTSF 231700Z 2318/2418 12003KT 9999 FEW020
       
TAF VTCN 231700Z 2318/2418 18005KT 9999 FEW025 
     TEMPO 2406/2412 26010G25KT 4000 TSRA FEW020CB BKN025
       
TAF VTSC 231700Z 2318/2418 17005KT 9999 FEW020
       
TAF VTPB 231700Z 2318/2418 18005KT 9999 SCT030 
     TEMPO 2406/2413 24015G25KT 4000 TSRA FEW018CB BKN030
       
TAF VTPP 231700Z 2318/2418 16005KT 9999 FEW030 
     TEMPO 2406/2413 24015G30KT 3000 TSRA FEW020CB BKN030
       
TAF VTCP 231700Z 2318/2418 22005KT 9999 SCT035 
     TEMPO 2403/2410 24015G30KT 4000 TSRA FEW020CB BKN025
       
VTSP 232230Z 22004KT 190V260 9999 FEW020 28/25 Q1008 NOSIG
TAF VTSP 231700Z 2318/2424 26008KT 9999 FEW020
       
TAF VTSR 231700Z 2318/2418 00000KT 9999 SCT020 
     BECMG 2402/2404 24008KT 
     BECMG 2412/2414 00000KT
       
VTUV 232200Z 19003KT 9000 SCT030 26/25 Q1005 NOSIG
TAF VTUV 231700Z 2318/2418 21006KT 9999 SCT030 
     TEMPO 2413/2416 VRB16KT 4000 TSRA FEW018CB BKN025
       
TAF VTUI 231700Z 2318/2418 18005KT 9000 FEW030 SCT100 
     TEMPO 2407/2413 VRB15KT 4000 TSRA FEW018CB BKN020 BKN080
       
TAF VTSM 231700Z 2318/2418 27005KT 9999 FEW020 
     PROB40 
     TEMPO 2404/2410 27015G25KT 4000 TSRA FEW016CB SCT018 BKN100
       
TAF VTPO 231700Z 2318/2418 17005KT 9999 FEW025 
     TEMPO 2406/2412 24010G25KT 4000 TSRA FEW018CB BKN025
       
VTSB 232200Z 20004KT 6000 FEW020 25/24 Q1007 NOSIG
TAF VTSB 231700Z 2318/2418 18005KT 9999 FEW020 
     PROB40 
     TEMPO 2404/2410 24015G25KT 4000 TSRA FEW016CB SCT018 BKN100
       
TAF VTPT 231700Z 2318/2418 24005KT 9999 FEW026 
     TEMPO 2402/2410 20015G25KT 4000 TSRA FEW018CB BKN026
       
TAF VTST 231700Z 2318/2418 00000KT 9999 FEW020 
     BECMG 2402/2404 24006KT 
     BECMG 2412/2414 00000KT
       
VTBU 232230Z 22004KT 9999 FEW020 28/24 Q1007 NOSIG
TAF VTBU 231700Z 2318/2418 23006KT 9999 FEW020
       
VTUU 232200Z 19005KT 150V250 CAVOK 26/25 Q1006 NOSIG
TAF VTUU 231700Z 2318/2418 22005KT 9999 FEW030 
     TEMPO 2412/2415 VRB15KT 4000 TSRA FEW018CB BKN025
       
VTUD 232200Z 05003KT 030V090 9000 BKN010 24/24 Q1005 NOSIG
TAF VTUD 231700Z 2318/2418 18005KT 9000 FEW030 SCT100 
     TEMPO 2407/2413 VRB15KT 4000 TSRA FEW018CB BKN020 BKN080